sensor_id;sensor_type;location;lat;lon;timestamp;P1;durP1;ratioP1;P2;durP2;ratioP2
63189;SDS011;49286;44.460;26.114;2023-02-03T00:00:59;10.98;;;5.20;;
63189;SDS011;49286;44.460;26.114;2023-02-03T00:03:25;11.27;;;5.22;;
63189;SDS011;49286;44.460;26.114;2023-02-03T00:05:51;16.38;;;5.95;;
63189;SDS011;49286;44.460;26.114;2023-02-03T00:08:17;9.40;;;6.25;;
63189;SDS011;49286;44.460;26.114;2023-02-03T00:10:44;10.80;;;4.15;;
63189;SDS011;49286;44.460;26.114;2023-02-03T00:13:10;18.80;;;7.13;;
63189;SDS011;49286;44.460;26.114;2023-02-03T00:15:36;8.68;;;4.80;;
63189;SDS011;49286;44.460;26.114;2023-02-03T00:18:01;7.38;;;4.70;;
63189;SDS011;49286;44.460;26.114;2023-02-03T00:20:27;6.05;;;4.25;;
63189;SDS011;49286;44.460;26.114;2023-02-03T00:22:52;7.25;;;5.65;;
63189;SDS011;49286;44.460;26.114;2023-02-03T00:25:18;8.75;;;5.18;;
63189;SDS011;49286;44.460;26.114;2023-02-03T00:27:45;13.10;;;6.05;;
63189;SDS011;49286;44.460;26.114;2023-02-03T00:30:11;8.60;;;5.90;;
63189;SDS011;49286;44.460;26.114;2023-02-03T00:32:37;14.57;;;6.55;;
63189;SDS011;49286;44.460;26.114;2023-02-03T00:35:03;9.20;;;4.57;;
63189;SDS011;49286;44.460;26.114;2023-02-03T00:37:29;12.82;;;6.97;;
63189;SDS011;49286;44.460;26.114;2023-02-03T00:39:54;9.52;;;6.40;;
63189;SDS011;49286;44.460;26.114;2023-02-03T00:42:20;11.13;;;6.55;;
63189;SDS011;49286;44.460;26.114;2023-02-03T00:44:45;9.82;;;4.80;;
63189;SDS011;49286;44.460;26.114;2023-02-03T00:47:11;9.43;;;5.25;;
63189;SDS011;49286;44.460;26.114;2023-02-03T00:49:36;10.95;;;4.70;;
63189;SDS011;49286;44.460;26.114;2023-02-03T00:52:02;7.65;;;4.63;;
63189;SDS011;49286;44.460;26.114;2023-02-03T00:54:27;8.95;;;4.85;;
63189;SDS011;49286;44.460;26.114;2023-02-03T00:56:53;9.73;;;5.10;;
63189;SDS011;49286;44.460;26.114;2023-02-03T00:59:18;10.20;;;4.70;;
63189;SDS011;49286;44.460;26.114;2023-02-03T01:01:43;10.95;;;6.18;;
63189;SDS011;49286;44.460;26.114;2023-02-03T01:04:09;8.73;;;5.30;;
63189;SDS011;49286;44.460;26.114;2023-02-03T01:06:34;13.52;;;5.53;;
63189;SDS011;49286;44.460;26.114;2023-02-03T01:09:00;12.98;;;6.53;;
63189;SDS011;49286;44.460;26.114;2023-02-03T01:11:27;14.95;;;5.68;;
63189;SDS011;49286;44.460;26.114;2023-02-03T01:13:53;9.90;;;4.60;;
63189;SDS011;49286;44.460;26.114;2023-02-03T01:16:20;6.97;;;3.92;;
63189;SDS011;49286;44.460;26.114;2023-02-03T01:18:47;12.52;;;5.63;;
63189;SDS011;49286;44.460;26.114;2023-02-03T01:21:18;6.55;;;4.03;;
63189;SDS011;49286;44.460;26.114;2023-02-03T01:23:45;12.68;;;5.20;;
63189;SDS011;49286;44.460;26.114;2023-02-03T01:26:13;8.50;;;5.22;;
63189;SDS011;49286;44.460;26.114;2023-02-03T01:28:39;9.70;;;4.35;;
63189;SDS011;49286;44.460;26.114;2023-02-03T01:31:13;8.70;;;5.47;;
63189;SDS011;49286;44.460;26.114;2023-02-03T01:33:41;12.38;;;4.68;;
63189;SDS011;49286;44.460;26.114;2023-02-03T01:36:10;7.82;;;4.38;;
63189;SDS011;49286;44.460;26.114;2023-02-03T01:38:36;10.75;;;5.68;;
63189;SDS011;49286;44.460;26.114;2023-02-03T01:41:03;10.00;;;4.38;;
63189;SDS011;49286;44.460;26.114;2023-02-03T01:43:40;9.55;;;5.32;;
63189;SDS011;49286;44.460;26.114;2023-02-03T01:46:51;7.10;;;4.38;;
63189;SDS011;49286;44.460;26.114;2023-02-03T01:49:19;8.00;;;5.18;;
63189;SDS011;49286;44.460;26.114;2023-02-03T01:51:49;9.45;;;4.40;;
63189;SDS011;49286;44.460;26.114;2023-02-03T01:54:18;12.63;;;5.22;;
63189;SDS011;49286;44.460;26.114;2023-02-03T01:56:52;10.00;;;5.63;;
63189;SDS011;49286;44.460;26.114;2023-02-03T01:59:19;9.35;;;4.75;;
63189;SDS011;49286;44.460;26.114;2023-02-03T02:01:48;8.73;;;4.78;;
63189;SDS011;49286;44.460;26.114;2023-02-03T02:04:15;8.63;;;4.38;;
63189;SDS011;49286;44.460;26.114;2023-02-03T02:06:41;9.75;;;5.60;;
63189;SDS011;49286;44.460;26.114;2023-02-03T02:09:07;17.60;;;5.15;;
63189;SDS011;49286;44.460;26.114;2023-02-03T02:11:32;9.20;;;4.75;;
63189;SDS011;49286;44.460;26.114;2023-02-03T02:14:00;7.97;;;3.70;;
63189;SDS011;49286;44.460;26.114;2023-02-03T02:16:40;11.93;;;5.60;;
63189;SDS011;49286;44.460;26.114;2023-02-03T02:21:54;8.27;;;5.65;;
63189;SDS011;49286;44.460;26.114;2023-02-03T02:30:10;8.05;;;4.15;;
63189;SDS011;49286;44.460;26.114;2023-02-03T02:32:52;9.30;;;4.25;;
63189;SDS011;49286;44.460;26.114;2023-02-03T02:43:40;13.00;;;3.88;;
63189;SDS011;49286;44.460;26.114;2023-02-03T02:49:10;9.68;;;4.45;;
63189;SDS011;49286;44.460;26.114;2023-02-03T02:51:40;7.45;;;3.80;;
63189;SDS011;49286;44.460;26.114;2023-02-03T02:54:09;8.10;;;4.53;;
63189;SDS011;49286;44.460;26.114;2023-02-03T02:56:39;10.45;;;3.95;;
63189;SDS011;49286;44.460;26.114;2023-02-03T02:59:07;9.63;;;4.88;;
63189;SDS011;49286;44.460;26.114;2023-02-03T03:01:34;7.60;;;3.58;;
63189;SDS011;49286;44.460;26.114;2023-02-03T03:04:00;10.75;;;5.13;;
63189;SDS011;49286;44.460;26.114;2023-02-03T03:06:48;9.88;;;4.15;;
63189;SDS011;49286;44.460;26.114;2023-02-03T03:09:30;10.15;;;4.03;;
63189;SDS011;49286;44.460;26.114;2023-02-03T03:12:06;5.53;;;3.45;;
63189;SDS011;49286;44.460;26.114;2023-02-03T03:14:43;9.45;;;4.03;;
63189;SDS011;49286;44.460;26.114;2023-02-03T03:17:12;9.20;;;4.07;;
63189;SDS011;49286;44.460;26.114;2023-02-03T03:19:46;9.97;;;4.00;;
63189;SDS011;49286;44.460;26.114;2023-02-03T03:22:16;4.00;;;3.20;;
63189;SDS011;49286;44.460;26.114;2023-02-03T03:24:48;10.43;;;4.47;;
63189;SDS011;49286;44.460;26.114;2023-02-03T03:27:24;10.60;;;5.93;;
63189;SDS011;49286;44.460;26.114;2023-02-03T03:29:58;18.65;;;5.78;;
63189;SDS011;49286;44.460;26.114;2023-02-03T03:32:28;7.55;;;4.35;;
63189;SDS011;49286;44.460;26.114;2023-02-03T03:34:57;7.43;;;3.95;;
63189;SDS011;49286;44.460;26.114;2023-02-03T03:39:56;11.15;;;4.30;;
63189;SDS011;49286;44.460;26.114;2023-02-03T03:45:10;11.27;;;5.10;;
63189;SDS011;49286;44.460;26.114;2023-02-03T03:50:14;8.88;;;4.38;;
63189;SDS011;49286;44.460;26.114;2023-02-03T03:52:43;14.05;;;5.47;;
63189;SDS011;49286;44.460;26.114;2023-02-03T03:55:11;9.77;;;4.53;;
63189;SDS011;49286;44.460;26.114;2023-02-03T03:57:40;13.00;;;5.47;;
63189;SDS011;49286;44.460;26.114;2023-02-03T04:00:11;6.25;;;4.32;;
63189;SDS011;49286;44.460;26.114;2023-02-03T04:02:41;9.45;;;4.85;;
63189;SDS011;49286;44.460;26.114;2023-02-03T04:05:10;8.70;;;4.80;;
63189;SDS011;49286;44.460;26.114;2023-02-03T04:07:41;8.10;;;4.75;;
63189;SDS011;49286;44.460;26.114;2023-02-03T04:12:59;18.40;;;5.10;;
63189;SDS011;49286;44.460;26.114;2023-02-03T04:15:26;10.02;;;4.75;;
63189;SDS011;49286;44.460;26.114;2023-02-03T04:17:52;11.40;;;5.65;;
63189;SDS011;49286;44.460;26.114;2023-02-03T04:20:19;9.27;;;5.30;;
63189;SDS011;49286;44.460;26.114;2023-02-03T04:22:45;11.95;;;5.30;;
63189;SDS011;49286;44.460;26.114;2023-02-03T04:25:11;17.23;;;6.30;;
63189;SDS011;49286;44.460;26.114;2023-02-03T04:27:36;9.60;;;5.22;;
63189;SDS011;49286;44.460;26.114;2023-02-03T04:30:04;13.70;;;7.55;;
63189;SDS011;49286;44.460;26.114;2023-02-03T04:32:30;11.20;;;5.45;;
63189;SDS011;49286;44.460;26.114;2023-02-03T04:34:56;19.65;;;6.97;;
63189;SDS011;49286;44.460;26.114;2023-02-03T04:37:22;18.70;;;5.80;;
63189;SDS011;49286;44.460;26.114;2023-02-03T04:39:48;10.73;;;6.50;;
63189;SDS011;49286;44.460;26.114;2023-02-03T04:42:16;10.63;;;6.00;;
63189;SDS011;49286;44.460;26.114;2023-02-03T04:44:42;11.13;;;5.93;;
63189;SDS011;49286;44.460;26.114;2023-02-03T04:47:08;11.73;;;6.97;;
63189;SDS011;49286;44.460;26.114;2023-02-03T04:49:33;15.73;;;7.65;;
63189;SDS011;49286;44.460;26.114;2023-02-03T04:51:59;14.63;;;6.40;;
63189;SDS011;49286;44.460;26.114;2023-02-03T04:54:24;9.45;;;5.20;;
63189;SDS011;49286;44.460;26.114;2023-02-03T04:56:50;8.45;;;4.22;;
63189;SDS011;49286;44.460;26.114;2023-02-03T04:59:15;9.68;;;5.18;;
63189;SDS011;49286;44.460;26.114;2023-02-03T05:01:41;10.77;;;4.50;;
63189;SDS011;49286;44.460;26.114;2023-02-03T05:04:06;10.27;;;5.78;;
63189;SDS011;49286;44.460;26.114;2023-02-03T05:06:32;13.18;;;5.70;;
63189;SDS011;49286;44.460;26.114;2023-02-03T05:08:57;19.48;;;5.65;;
63189;SDS011;49286;44.460;26.114;2023-02-03T05:11:23;9.38;;;5.43;;
63189;SDS011;49286;44.460;26.114;2023-02-03T05:13:49;11.65;;;4.95;;
63189;SDS011;49286;44.460;26.114;2023-02-03T05:16:14;13.30;;;6.03;;
63189;SDS011;49286;44.460;26.114;2023-02-03T05:18:40;12.38;;;6.65;;
63189;SDS011;49286;44.460;26.114;2023-02-03T05:21:05;12.50;;;5.03;;
63189;SDS011;49286;44.460;26.114;2023-02-03T05:23:31;15.68;;;7.57;;
63189;SDS011;49286;44.460;26.114;2023-02-03T05:25:57;12.35;;;5.43;;
63189;SDS011;49286;44.460;26.114;2023-02-03T05:28:22;14.80;;;5.00;;
63189;SDS011;49286;44.460;26.114;2023-02-03T05:30:48;15.23;;;6.80;;
63189;SDS011;49286;44.460;26.114;2023-02-03T05:33:14;9.05;;;5.70;;
63189;SDS011;49286;44.460;26.114;2023-02-03T05:35:39;23.48;;;6.55;;
63189;SDS011;49286;44.460;26.114;2023-02-03T05:38:05;10.18;;;5.95;;
63189;SDS011;49286;44.460;26.114;2023-02-03T05:40:31;8.93;;;5.45;;
63189;SDS011;49286;44.460;26.114;2023-02-03T05:43:15;20.13;;;6.82;;
63189;SDS011;49286;44.460;26.114;2023-02-03T05:45:40;11.73;;;7.38;;
63189;SDS011;49286;44.460;26.114;2023-02-03T05:48:06;15.50;;;7.53;;
63189;SDS011;49286;44.460;26.114;2023-02-03T05:50:32;18.05;;;9.70;;
63189;SDS011;49286;44.460;26.114;2023-02-03T05:52:58;16.27;;;7.93;;
63189;SDS011;49286;44.460;26.114;2023-02-03T05:55:24;14.23;;;8.48;;
63189;SDS011;49286;44.460;26.114;2023-02-03T05:57:52;14.27;;;8.30;;
63189;SDS011;49286;44.460;26.114;2023-02-03T06:00:19;16.08;;;7.00;;
63189;SDS011;49286;44.460;26.114;2023-02-03T06:02:52;12.52;;;7.20;;
63189;SDS011;49286;44.460;26.114;2023-02-03T06:05:19;14.40;;;7.32;;
63189;SDS011;49286;44.460;26.114;2023-02-03T06:07:46;12.45;;;6.63;;
63189;SDS011;49286;44.460;26.114;2023-02-03T06:10:11;18.42;;;7.32;;
63189;SDS011;49286;44.460;26.114;2023-02-03T06:12:37;20.63;;;8.82;;
63189;SDS011;49286;44.460;26.114;2023-02-03T06:15:03;11.38;;;7.57;;
63189;SDS011;49286;44.460;26.114;2023-02-03T06:17:31;19.63;;;8.82;;
63189;SDS011;49286;44.460;26.114;2023-02-03T06:19:56;24.27;;;7.50;;
63189;SDS011;49286;44.460;26.114;2023-02-03T06:22:22;10.90;;;6.55;;
63189;SDS011;49286;44.460;26.114;2023-02-03T06:24:48;15.57;;;9.27;;
63189;SDS011;49286;44.460;26.114;2023-02-03T06:27:14;13.20;;;8.52;;
63189;SDS011;49286;44.460;26.114;2023-02-03T06:29:40;22.17;;;10.32;;
63189;SDS011;49286;44.460;26.114;2023-02-03T06:32:06;19.55;;;8.23;;
63189;SDS011;49286;44.460;26.114;2023-02-03T06:34:32;13.82;;;8.05;;
63189;SDS011;49286;44.460;26.114;2023-02-03T06:36:58;12.10;;;7.05;;
63189;SDS011;49286;44.460;26.114;2023-02-03T06:39:23;31.40;;;8.40;;
63189;SDS011;49286;44.460;26.114;2023-02-03T06:41:49;15.45;;;9.32;;
63189;SDS011;49286;44.460;26.114;2023-02-03T06:44:16;14.07;;;9.40;;
63189;SDS011;49286;44.460;26.114;2023-02-03T06:46:42;17.63;;;11.43;;
63189;SDS011;49286;44.460;26.114;2023-02-03T06:49:07;17.02;;;9.63;;
63189;SDS011;49286;44.460;26.114;2023-02-03T06:51:33;19.08;;;11.23;;
63189;SDS011;49286;44.460;26.114;2023-02-03T06:53:58;17.95;;;9.10;;
63189;SDS011;49286;44.460;26.114;2023-02-03T06:56:24;15.98;;;9.90;;
63189;SDS011;49286;44.460;26.114;2023-02-03T06:58:50;29.00;;;10.07;;
63189;SDS011;49286;44.460;26.114;2023-02-03T07:01:15;13.25;;;8.70;;
63189;SDS011;49286;44.460;26.114;2023-02-03T07:03:40;15.25;;;10.98;;
63189;SDS011;49286;44.460;26.114;2023-02-03T07:06:06;16.38;;;9.38;;
63189;SDS011;49286;44.460;26.114;2023-02-03T07:08:31;14.57;;;9.10;;
63189;SDS011;49286;44.460;26.114;2023-02-03T07:10:57;13.10;;;8.02;;
63189;SDS011;49286;44.460;26.114;2023-02-03T07:13:22;13.32;;;8.32;;
63189;SDS011;49286;44.460;26.114;2023-02-03T07:15:48;16.08;;;9.38;;
63189;SDS011;49286;44.460;26.114;2023-02-03T07:18:13;13.80;;;8.95;;
63189;SDS011;49286;44.460;26.114;2023-02-03T07:20:40;17.33;;;8.98;;
63189;SDS011;49286;44.460;26.114;2023-02-03T07:23:05;20.35;;;9.48;;
63189;SDS011;49286;44.460;26.114;2023-02-03T07:25:31;14.63;;;8.73;;
63189;SDS011;49286;44.460;26.114;2023-02-03T07:27:56;32.28;;;10.10;;
63189;SDS011;49286;44.460;26.114;2023-02-03T07:30:22;17.33;;;8.90;;
63189;SDS011;49286;44.460;26.114;2023-02-03T07:32:48;17.85;;;9.68;;
63189;SDS011;49286;44.460;26.114;2023-02-03T07:35:15;20.95;;;10.00;;
63189;SDS011;49286;44.460;26.114;2023-02-03T07:37:41;24.00;;;10.52;;
63189;SDS011;49286;44.460;26.114;2023-02-03T07:40:07;19.77;;;10.35;;
63189;SDS011;49286;44.460;26.114;2023-02-03T07:42:34;14.70;;;9.50;;
63189;SDS011;49286;44.460;26.114;2023-02-03T07:44:59;21.98;;;12.57;;
63189;SDS011;49286;44.460;26.114;2023-02-03T07:47:25;18.73;;;10.02;;
63189;SDS011;49286;44.460;26.114;2023-02-03T07:49:50;22.42;;;11.73;;
63189;SDS011;49286;44.460;26.114;2023-02-03T07:52:16;19.42;;;11.85;;
63189;SDS011;49286;44.460;26.114;2023-02-03T07:54:41;20.80;;;11.48;;
63189;SDS011;49286;44.460;26.114;2023-02-03T07:57:06;19.63;;;10.57;;
63189;SDS011;49286;44.460;26.114;2023-02-03T07:59:32;17.70;;;11.98;;
63189;SDS011;49286;44.460;26.114;2023-02-03T08:01:58;21.33;;;11.70;;
63189;SDS011;49286;44.460;26.114;2023-02-03T08:04:23;20.98;;;12.80;;
63189;SDS011;49286;44.460;26.114;2023-02-03T08:06:49;22.67;;;12.80;;
63189;SDS011;49286;44.460;26.114;2023-02-03T08:09:15;24.67;;;13.43;;
63189;SDS011;49286;44.460;26.114;2023-02-03T08:11:40;18.52;;;10.80;;
63189;SDS011;49286;44.460;26.114;2023-02-03T08:14:06;17.30;;;10.73;;
63189;SDS011;49286;44.460;26.114;2023-02-03T08:16:31;15.45;;;9.27;;
63189;SDS011;49286;44.460;26.114;2023-02-03T08:18:57;15.15;;;10.10;;
63189;SDS011;49286;44.460;26.114;2023-02-03T08:21:22;15.35;;;10.55;;
63189;SDS011;49286;44.460;26.114;2023-02-03T08:23:48;18.00;;;10.77;;
63189;SDS011;49286;44.460;26.114;2023-02-03T08:26:13;17.92;;;9.88;;
63189;SDS011;49286;44.460;26.114;2023-02-03T08:28:39;18.67;;;9.38;;
63189;SDS011;49286;44.460;26.114;2023-02-03T08:31:10;18.92;;;11.48;;
63189;SDS011;49286;44.460;26.114;2023-02-03T08:33:36;23.33;;;13.10;;
63189;SDS011;49286;44.460;26.114;2023-02-03T08:36:03;21.58;;;13.98;;
63189;SDS011;49286;44.460;26.114;2023-02-03T08:38:29;19.25;;;10.05;;
63189;SDS011;49286;44.460;26.114;2023-02-03T08:40:55;19.42;;;12.07;;
63189;SDS011;49286;44.460;26.114;2023-02-03T08:43:21;13.30;;;10.43;;
63189;SDS011;49286;44.460;26.114;2023-02-03T08:45:46;19.75;;;10.82;;
63189;SDS011;49286;44.460;26.114;2023-02-03T08:48:12;17.92;;;11.55;;
63189;SDS011;49286;44.460;26.114;2023-02-03T08:50:39;17.90;;;12.32;;
63189;SDS011;49286;44.460;26.114;2023-02-03T08:53:06;19.83;;;12.57;;
63189;SDS011;49286;44.460;26.114;2023-02-03T08:55:33;21.45;;;14.63;;
63189;SDS011;49286;44.460;26.114;2023-02-03T08:57:58;27.33;;;16.60;;
63189;SDS011;49286;44.460;26.114;2023-02-03T09:00:24;27.38;;;12.48;;
63189;SDS011;49286;44.460;26.114;2023-02-03T09:02:50;20.40;;;12.45;;
63189;SDS011;49286;44.460;26.114;2023-02-03T09:05:15;19.45;;;11.75;;
63189;SDS011;49286;44.460;26.114;2023-02-03T09:07:42;20.35;;;10.43;;
63189;SDS011;49286;44.460;26.114;2023-02-03T09:10:08;37.05;;;10.70;;
63189;SDS011;49286;44.460;26.114;2023-02-03T09:12:34;12.98;;;10.30;;
63189;SDS011;49286;44.460;26.114;2023-02-03T09:15:00;17.77;;;11.35;;
63189;SDS011;49286;44.460;26.114;2023-02-03T09:17:25;16.77;;;9.38;;
63189;SDS011;49286;44.460;26.114;2023-02-03T09:19:52;11.07;;;7.20;;
63189;SDS011;49286;44.460;26.114;2023-02-03T09:22:17;16.60;;;7.00;;
63189;SDS011;49286;44.460;26.114;2023-02-03T09:24:43;11.13;;;7.32;;
63189;SDS011;49286;44.460;26.114;2023-02-03T09:27:08;19.25;;;10.23;;
63189;SDS011;49286;44.460;26.114;2023-02-03T09:29:34;19.50;;;9.68;;
63189;SDS011;49286;44.460;26.114;2023-02-03T09:31:59;20.90;;;10.00;;
63189;SDS011;49286;44.460;26.114;2023-02-03T09:34:30;15.27;;;8.18;;
63189;SDS011;49286;44.460;26.114;2023-02-03T09:36:56;13.60;;;7.70;;
63189;SDS011;49286;44.460;26.114;2023-02-03T09:39:21;10.45;;;6.40;;
63189;SDS011;49286;44.460;26.114;2023-02-03T09:42:12;10.50;;;6.53;;
63189;SDS011;49286;44.460;26.114;2023-02-03T09:47:41;13.43;;;6.15;;
63189;SDS011;49286;44.460;26.114;2023-02-03T09:50:17;9.85;;;4.53;;
63189;SDS011;49286;44.460;26.114;2023-02-03T09:52:45;11.77;;;5.72;;
63189;SDS011;49286;44.460;26.114;2023-02-03T09:58:09;10.63;;;6.45;;
63189;SDS011;49286;44.460;26.114;2023-02-03T10:03:26;8.15;;;4.97;;
63189;SDS011;49286;44.460;26.114;2023-02-03T10:19:25;30.02;;;18.85;;
63189;SDS011;49286;44.460;26.114;2023-02-03T10:21:58;23.67;;;15.80;;
63189;SDS011;49286;44.460;26.114;2023-02-03T10:24:26;25.40;;;17.02;;
63189;SDS011;49286;44.460;26.114;2023-02-03T10:27:02;30.42;;;15.27;;
63189;SDS011;49286;44.460;26.114;2023-02-03T10:29:30;24.65;;;14.65;;
63189;SDS011;49286;44.460;26.114;2023-02-03T10:32:04;19.77;;;14.18;;
63189;SDS011;49286;44.460;26.114;2023-02-03T10:34:36;22.00;;;13.00;;
63189;SDS011;49286;44.460;26.114;2023-02-03T10:37:07;25.38;;;14.27;;
63189;SDS011;49286;44.460;26.114;2023-02-03T10:39:40;16.85;;;12.27;;
63189;SDS011;49286;44.460;26.114;2023-02-03T10:42:10;24.48;;;15.15;;
63189;SDS011;49286;44.460;26.114;2023-02-03T10:44:41;25.77;;;17.88;;
63189;SDS011;49286;44.460;26.114;2023-02-03T10:47:18;24.27;;;17.63;;
63189;SDS011;49286;44.460;26.114;2023-02-03T10:50:21;21.25;;;13.07;;
63189;SDS011;49286;44.460;26.114;2023-02-03T10:55:42;24.92;;;12.65;;
63189;SDS011;49286;44.460;26.114;2023-02-03T10:58:13;18.83;;;12.25;;
63189;SDS011;49286;44.460;26.114;2023-02-03T11:00:41;36.45;;;14.07;;
63189;SDS011;49286;44.460;26.114;2023-02-03T11:06:02;26.67;;;11.23;;
63189;SDS011;49286;44.460;26.114;2023-02-03T11:08:37;20.55;;;14.77;;
63189;SDS011;49286;44.460;26.114;2023-02-03T11:11:06;15.98;;;12.60;;
63189;SDS011;49286;44.460;26.114;2023-02-03T11:13:33;17.05;;;11.38;;
63189;SDS011;49286;44.460;26.114;2023-02-03T11:21:42;13.63;;;10.43;;
63189;SDS011;49286;44.460;26.114;2023-02-03T11:24:31;21.17;;;8.32;;
63189;SDS011;49286;44.460;26.114;2023-02-03T11:27:10;23.33;;;8.27;;
63189;SDS011;49286;44.460;26.114;2023-02-03T11:29:43;11.63;;;7.13;;
63189;SDS011;49286;44.460;26.114;2023-02-03T11:32:21;9.30;;;7.00;;
63189;SDS011;49286;44.460;26.114;2023-02-03T11:34:57;12.13;;;7.30;;
63189;SDS011;49286;44.460;26.114;2023-02-03T11:42:33;16.30;;;7.95;;
63189;SDS011;49286;44.460;26.114;2023-02-03T11:45:46;9.55;;;6.47;;
63189;SDS011;49286;44.460;26.114;2023-02-03T12:26:24;4.90;;;3.28;;
63189;SDS011;49286;44.460;26.114;2023-02-03T12:31:50;5.63;;;2.85;;
63189;SDS011;49286;44.460;26.114;2023-02-03T12:34:36;9.95;;;5.13;;
63189;SDS011;49286;44.460;26.114;2023-02-03T12:37:13;10.30;;;6.85;;
63189;SDS011;49286;44.460;26.114;2023-02-03T12:39:53;17.08;;;7.43;;
63189;SDS011;49286;44.460;26.114;2023-02-03T12:42:31;17.80;;;10.27;;
63189;SDS011;49286;44.460;26.114;2023-02-03T12:45:04;14.32;;;8.43;;
63189;SDS011;49286;44.460;26.114;2023-02-03T12:47:48;12.07;;;7.80;;
63189;SDS011;49286;44.460;26.114;2023-02-03T12:50:29;33.35;;;17.30;;
63189;SDS011;49286;44.460;26.114;2023-02-03T12:55:37;33.78;;;14.60;;
63189;SDS011;49286;44.460;26.114;2023-02-03T13:00:48;31.65;;;14.73;;
63189;SDS011;49286;44.460;26.114;2023-02-03T13:08:59;25.80;;;6.75;;
63189;SDS011;49286;44.460;26.114;2023-02-03T13:16:39;8.25;;;5.47;;
63189;SDS011;49286;44.460;26.114;2023-02-03T13:19:16;9.18;;;5.25;;
63189;SDS011;49286;44.460;26.114;2023-02-03T13:21:48;11.02;;;5.65;;
63189;SDS011;49286;44.460;26.114;2023-02-03T13:24:14;9.65;;;5.30;;
63189;SDS011;49286;44.460;26.114;2023-02-03T13:43:54;9.40;;;5.55;;
63189;SDS011;49286;44.460;26.114;2023-02-03T13:46:31;8.43;;;4.55;;
63189;SDS011;49286;44.460;26.114;2023-02-03T13:49:00;10.52;;;6.60;;
63189;SDS011;49286;44.460;26.114;2023-02-03T13:51:29;10.52;;;6.28;;
63189;SDS011;49286;44.460;26.114;2023-02-03T13:54:11;7.93;;;6.18;;
63189;SDS011;49286;44.460;26.114;2023-02-03T13:56:57;15.30;;;6.72;;
63189;SDS011;49286;44.460;26.114;2023-02-03T14:07:33;9.02;;;5.68;;
63189;SDS011;49286;44.460;26.114;2023-02-03T14:12:58;7.18;;;4.88;;
63189;SDS011;49286;44.460;26.114;2023-02-03T14:17:54;10.82;;;5.47;;
63189;SDS011;49286;44.460;26.114;2023-02-03T14:22:58;9.50;;;3.47;;
63189;SDS011;49286;44.460;26.114;2023-02-03T14:25:37;9.40;;;5.82;;
63189;SDS011;49286;44.460;26.114;2023-02-03T14:28:12;15.30;;;6.38;;
63189;SDS011;49286;44.460;26.114;2023-02-03T14:34:11;9.60;;;6.57;;
63189;SDS011;49286;44.460;26.114;2023-02-03T14:36:40;11.10;;;5.50;;
63189;SDS011;49286;44.460;26.114;2023-02-03T14:55:30;13.48;;;5.68;;
63189;SDS011;49286;44.460;26.114;2023-02-03T14:58:06;11.07;;;5.93;;
63189;SDS011;49286;44.460;26.114;2023-02-03T15:00:45;9.73;;;7.32;;
63189;SDS011;49286;44.460;26.114;2023-02-03T15:03:14;20.63;;;8.10;;
63189;SDS011;49286;44.460;26.114;2023-02-03T15:08:33;8.98;;;5.90;;
63189;SDS011;49286;44.460;26.114;2023-02-03T15:14:21;17.13;;;6.03;;
63189;SDS011;49286;44.460;26.114;2023-02-03T15:16:59;10.60;;;5.97;;
63189;SDS011;49286;44.460;26.114;2023-02-03T15:19:27;11.98;;;6.32;;
63189;SDS011;49286;44.460;26.114;2023-02-03T15:21:57;15.55;;;8.10;;
63189;SDS011;49286;44.460;26.114;2023-02-03T15:24:22;14.27;;;7.57;;
63189;SDS011;49286;44.460;26.114;2023-02-03T15:26:53;11.75;;;5.90;;
63189;SDS011;49286;44.460;26.114;2023-02-03T15:29:25;15.73;;;6.20;;
63189;SDS011;49286;44.460;26.114;2023-02-03T15:31:53;9.52;;;5.90;;
63189;SDS011;49286;44.460;26.114;2023-02-03T15:34:34;30.88;;;6.22;;
63189;SDS011;49286;44.460;26.114;2023-02-03T15:37:06;15.50;;;4.93;;
63189;SDS011;49286;44.460;26.114;2023-02-03T15:42:13;15.13;;;8.35;;
63189;SDS011;49286;44.460;26.114;2023-02-03T15:45:04;29.80;;;7.00;;
63189;SDS011;49286;44.460;26.114;2023-02-03T15:47:40;12.85;;;6.82;;
63189;SDS011;49286;44.460;26.114;2023-02-03T15:50:32;12.20;;;6.63;;
63189;SDS011;49286;44.460;26.114;2023-02-03T15:55:53;13.82;;;6.03;;
63189;SDS011;49286;44.460;26.114;2023-02-03T15:58:24;21.58;;;6.80;;
63189;SDS011;49286;44.460;26.114;2023-02-03T16:00:55;13.40;;;7.13;;
63189;SDS011;49286;44.460;26.114;2023-02-03T16:03:31;13.95;;;7.47;;
63189;SDS011;49286;44.460;26.114;2023-02-03T16:08:52;25.75;;;7.15;;
63189;SDS011;49286;44.460;26.114;2023-02-03T16:11:35;9.38;;;5.45;;
63189;SDS011;49286;44.460;26.114;2023-02-03T16:14:05;10.52;;;5.18;;
63189;SDS011;49286;44.460;26.114;2023-02-03T16:16:41;13.38;;;5.05;;
63189;SDS011;49286;44.460;26.114;2023-02-03T16:19:12;10.88;;;5.85;;
63189;SDS011;49286;44.460;26.114;2023-02-03T16:24:34;9.50;;;4.97;;
63189;SDS011;49286;44.460;26.114;2023-02-03T16:27:18;8.77;;;5.40;;
63189;SDS011;49286;44.460;26.114;2023-02-03T16:29:50;11.82;;;5.93;;
63189;SDS011;49286;44.460;26.114;2023-02-03T16:32:34;9.38;;;5.85;;
63189;SDS011;49286;44.460;26.114;2023-02-03T16:35:19;9.70;;;5.82;;
63189;SDS011;49286;44.460;26.114;2023-02-03T16:38:04;8.65;;;6.03;;
63189;SDS011;49286;44.460;26.114;2023-02-03T16:40:50;7.82;;;5.85;;
63189;SDS011;49286;44.460;26.114;2023-02-03T16:43:34;8.80;;;4.68;;
63189;SDS011;49286;44.460;26.114;2023-02-03T16:46:18;8.40;;;5.50;;
63189;SDS011;49286;44.460;26.114;2023-02-03T16:49:02;17.75;;;6.80;;
63189;SDS011;49286;44.460;26.114;2023-02-03T16:51:46;8.65;;;6.55;;
63189;SDS011;49286;44.460;26.114;2023-02-03T16:54:13;11.25;;;6.05;;
63189;SDS011;49286;44.460;26.114;2023-02-03T16:56:39;13.45;;;7.28;;
63189;SDS011;49286;44.460;26.114;2023-02-03T16:59:05;14.43;;;6.28;;
63189;SDS011;49286;44.460;26.114;2023-02-03T17:01:30;11.30;;;6.15;;
63189;SDS011;49286;44.460;26.114;2023-02-03T17:03:56;16.45;;;6.00;;
63189;SDS011;49286;44.460;26.114;2023-02-03T17:06:22;11.43;;;6.43;;
63189;SDS011;49286;44.460;26.114;2023-02-03T17:08:47;10.77;;;7.60;;
63189;SDS011;49286;44.460;26.114;2023-02-03T17:11:14;16.77;;;7.13;;
63189;SDS011;49286;44.460;26.114;2023-02-03T17:13:42;11.60;;;7.28;;
63189;SDS011;49286;44.460;26.114;2023-02-03T17:16:13;14.75;;;8.18;;
63189;SDS011;49286;44.460;26.114;2023-02-03T17:18:41;16.13;;;7.30;;
63189;SDS011;49286;44.460;26.114;2023-02-03T17:21:08;21.13;;;7.35;;
63189;SDS011;49286;44.460;26.114;2023-02-03T17:23:35;11.68;;;7.55;;
63189;SDS011;49286;44.460;26.114;2023-02-03T17:26:01;13.25;;;6.75;;
63189;SDS011;49286;44.460;26.114;2023-02-03T17:28:27;10.73;;;6.00;;
63189;SDS011;49286;44.460;26.114;2023-02-03T17:31:01;16.52;;;5.97;;
63189;SDS011;49286;44.460;26.114;2023-02-03T17:33:28;12.95;;;7.90;;
63189;SDS011;49286;44.460;26.114;2023-02-03T17:36:02;11.25;;;6.68;;
63189;SDS011;49286;44.460;26.114;2023-02-03T17:38:30;11.18;;;5.38;;
63189;SDS011;49286;44.460;26.114;2023-02-03T17:41:09;8.93;;;5.82;;
63189;SDS011;49286;44.460;26.114;2023-02-03T17:43:39;10.60;;;5.75;;
63189;SDS011;49286;44.460;26.114;2023-02-03T17:46:05;20.80;;;6.72;;
63189;SDS011;49286;44.460;26.114;2023-02-03T17:48:31;11.45;;;6.10;;
63189;SDS011;49286;44.460;26.114;2023-02-03T17:51:07;12.75;;;6.50;;
63189;SDS011;49286;44.460;26.114;2023-02-03T17:53:34;11.00;;;5.68;;